Time;durP1;ratioP1;P1;durP2;ratioP2;P2;SDS_P1;SDS_P2;PMS_P1;PMS_P2;Temp;Humidity;BMP_temperature;BMP_pressure;BME280_temperature;BME280_humidity;BME280_pressure;Samples;Min_cycle;Max_cycle;Signal;HPM_P1;HPM_P2
2021/07/01 00:00:46;;;;;;;;;;;;;;;14.46;100.00;98751.94;5025716;28;19917;-72
2021/07/01 00:03:11;;;;;;;;;;;;;;;14.80;100.00;98745.00;5007440;28;19936;-72
2021/07/01 00:05:37;;;;;;;;;;;;;;;14.75;100.00;98742.66;5008536;28;19917;-72
2021/07/01 00:08:03;;;;;;;;;;;;;;;14.86;100.00;98739.50;5025899;28;19971;-72
2021/07/01 00:10:28;;;;;;;;;;;;;;;14.78;100.00;98746.81;5009270;28;19917;-72
2021/07/01 00:12:54;;;;;;;;;;;;;;;14.77;100.00;98739.97;5007632;28;19927;-73
2021/07/01 00:15:20;;;;;;;;;;;;;;;14.43;100.00;98746.91;5008711;28;19979;-72
2021/07/01 00:17:46;;;;;;;;;;;;;;;14.51;100.00;98742.16;5025151;28;20449;-72
2021/07/01 00:20:12;;;;;;;;;;;;;;;14.46;100.00;98732.94;5007877;28;19940;-72
2021/07/01 00:22:38;;;;;;;;;;;;;;;14.69;100.00;98743.00;5007900;28;20498;-72
2021/07/01 00:25:04;;;;;;;;;;;;;;;14.94;100.00;98742.53;4992536;28;19923;-72
2021/07/01 00:27:30;;;;;;;;;;;;;;;14.94;100.00;98747.69;5007358;28;19956;-72
2021/07/01 00:29:55;;;;;;;;;;;;;;;15.37;100.00;98737.56;5025511;28;19967;-72
2021/07/01 00:32:21;;;;;;;;;;;;;;;15.31;100.00;98735.31;5024812;28;20008;-72
2021/07/01 00:34:46;;;;;;;;;;;;;;;15.32;100.00;98733.53;5025062;28;20499;-72
2021/07/01 00:37:11;;;;;;;;;;;;;;;15.11;100.00;98735.56;5024383;28;19952;-72
2021/07/01 00:39:37;;;;;;;;;;;;;;;15.34;100.00;98729.94;5025187;28;20030;-72
2021/07/01 00:42:02;;;;;;;;;;;;;;;15.11;100.00;98727.78;5006895;28;20487;-73
2021/07/01 00:44:28;;;;;;;;;;;;;;;15.04;100.00;98733.31;5007719;28;19921;-72
2021/07/01 00:46:53;;;;;;;;;;;;;;;15.03;100.00;98736.00;5007158;28;19943;-72
2021/07/01 00:49:19;;;;;;;;;;;;;;;14.76;100.00;98746.09;5024284;28;19917;-72
2021/07/01 00:51:44;;;;;;;;;;;;;;;15.04;100.00;98733.31;5024854;28;19917;-72
2021/07/01 00:54:09;;;;;;;;;;;;;;;15.24;100.00;98741.75;5007059;28;19917;-72
2021/07/01 00:56:38;;;;;;;;;;;;;;;14.67;100.00;98744.00;5006074;28;19925;-72
2021/07/01 00:59:03;;;;;;;;;;;;;;;14.65;100.00;98746.66;5024539;28;19970;-72
2021/07/01 01:01:29;;;;;;;;;;;;;;;14.46;100.00;98740.72;5006115;28;20398;-72
2021/07/01 01:03:54;;;;;;;;;;;;;;;14.43;100.00;98746.91;5006662;28;19960;-72
2021/07/01 01:06:20;;;;;;;;;;;;;;;14.53;100.00;98742.94;5006092;28;19917;-72
2021/07/01 01:08:45;;;;;;;;;;;;;;;14.48;100.00;98744.06;5006025;28;19921;-72
2021/07/01 01:11:10;;;;;;;;;;;;;;;15.01;100.00;98736.06;5006114;28;19968;-72
2021/07/01 01:13:36;;;;;;;;;;;;;;;14.64;100.00;98735.47;5006888;28;20404;-72
2021/07/01 01:16:02;;;;;;;;;;;;;;;14.75;100.00;98734.88;5005731;28;19979;-72
2021/07/01 01:18:27;;;;;;;;;;;;;;;14.46;100.00;98739.00;5024749;28;19921;-72
2021/07/01 01:20:55;;;;;;;;;;;;;;;14.57;100.00;98734.13;5006031;28;19917;-72
2021/07/01 01:23:21;;;;;;;;;;;;;;;15.02;100.00;98729.94;5006818;28;20375;-72
2021/07/01 01:25:47;;;;;;;;;;;;;;;14.85;100.00;98735.22;5005161;28;19917;-72
2021/07/01 01:28:12;;;;;;;;;;;;;;;15.01;100.00;98730.88;5024534;28;19917;-72
2021/07/01 01:30:38;;;;;;;;;;;;;;;15.33;100.00;98738.66;5006053;28;19987;-72
2021/07/01 01:33:05;;;;;;;;;;;;;;;14.89;100.00;98734.13;5006676;28;19917;-72
2021/07/01 01:35:30;;;;;;;;;;;;;;;14.88;100.00;98742.84;5005880;28;20477;-72
2021/07/01 01:37:56;;;;;;;;;;;;;;;14.68;100.00;98740.47;5024205;28;19968;-72
2021/07/01 01:40:21;;;;;;;;;;;;;;;14.53;100.00;98736.88;5023692;28;19924;-72
2021/07/01 01:42:47;;;;;;;;;;;;;;;14.63;100.00;98745.91;5007037;28;19931;-72
2021/07/01 01:45:12;;;;;;;;;;;;;;;14.26;100.00;98744.38;5023301;28;20342;-72
2021/07/01 01:47:37;;;;;;;;;;;;;;;13.91;100.00;98754.72;5024417;28;20402;-72
2021/07/01 01:50:03;;;;;;;;;;;;;;;13.95;100.00;98761.41;5022763;28;19970;-73
2021/07/01 01:52:29;;;;;;;;;;;;;;;14.12;100.00;98756.25;5015870;28;20354;-72
2021/07/01 01:54:54;;;;;;;;;;;;;;;13.91;100.00;98759.91;5019850;28;19921;-72
2021/07/01 01:57:26;;;;;;;;;;;;;;;13.94;100.00;98757.19;5024008;28;19917;-73
2021/07/01 01:59:51;;;;;;;;;;;;;;;14.12;100.00;98752.84;5007839;28;20495;-72
2021/07/01 02:02:17;;;;;;;;;;;;;;;14.38;100.00;98748.91;5027929;28;19952;-72
2021/07/01 02:04:42;;;;;;;;;;;;;;;14.08;100.00;98752.13;5027246;28;19928;-72
2021/07/01 02:07:07;;;;;;;;;;;;;;;14.40;100.00;98747.06;5010640;28;19913;-72
2021/07/01 02:09:33;;;;;;;;;;;;;;;14.24;100.00;98744.44;5009479;28;20578;-73
2021/07/01 02:11:58;;;;;;;;;;;;;;;14.25;100.00;98742.66;5027851;28;20450;-72
2021/07/01 02:14:24;;;;;;;;;;;;;;;14.33;100.00;98741.38;4993355;28;19929;-73
2021/07/01 02:16:49;;;;;;;;;;;;;;;14.02;100.00;98747.25;5010530;28;19971;-73
2021/07/01 02:19:15;;;;;;;;;;;;;;;14.04;100.00;98750.59;5007830;28;19932;-73
2021/07/01 02:21:40;;;;;;;;;;;;;;;14.36;100.00;98750.72;5027774;28;19920;-73
2021/07/01 02:24:05;;;;;;;;;;;;;;;14.19;100.00;98749.84;5026751;28;19917;-72
2021/07/01 02:26:31;;;;;;;;;;;;;;;14.13;100.00;98755.31;5010454;28;19996;-72
2021/07/01 02:28:56;;;;;;;;;;;;;;;14.28;100.00;98752.84;5025904;28;19992;-73
2021/07/01 02:31:22;;;;;;;;;;;;;;;14.77;100.00;98753.78;5027888;28;20414;-73
2021/07/01 02:33:47;;;;;;;;;;;;;;;14.93;100.00;98751.19;5009205;28;19925;-73
2021/07/01 02:36:12;;;;;;;;;;;;;;;14.64;100.00;98755.34;5010051;28;19917;-73
2021/07/01 02:38:38;;;;;;;;;;;;;;;14.17;100.00;98746.50;5009045;28;19921;-73
2021/07/01 02:41:03;;;;;;;;;;;;;;;14.62;100.00;98742.47;5009636;28;19921;-73
2021/07/01 02:43:29;;;;;;;;;;;;;;;14.37;100.00;98744.66;5009485;28;19919;-73
2021/07/01 02:45:54;;;;;;;;;;;;;;;14.51;100.00;98742.16;5027483;28;19956;-72
2021/07/01 02:48:19;;;;;;;;;;;;;;;14.66;100.00;98737.94;5008913;28;20402;-73
2021/07/01 02:50:45;;;;;;;;;;;;;;;14.82;100.00;98735.38;5027456;28;19921;-73
2021/07/01 02:53:10;;;;;;;;;;;;;;;14.60;100.00;98740.88;5026510;28;19928;-73
2021/07/01 02:55:36;;;;;;;;;;;;;;;14.17;100.00;98741.31;5009395;28;20014;-72
2021/07/01 02:58:02;;;;;;;;;;;;;;;14.33;100.00;98745.72;5008851;28;20939;-71
2021/07/01 03:00:27;;;;;;;;;;;;;;;14.60;100.00;98744.31;5027118;28;19920;-72
2021/07/01 03:02:52;;;;;;;;;;;;;;;14.49;100.00;98751.78;5009010;28;20401;-72
2021/07/01 03:05:18;;;;;;;;;;;;;;;14.61;100.00;98751.16;4992593;28;20409;-72
2021/07/01 03:07:43;;;;;;;;;;;;;;;14.39;100.00;98761.78;5025796;28;19917;-72
2021/07/01 03:10:09;;;;;;;;;;;;;;;14.83;100.00;98750.03;5027399;28;20293;-72
2021/07/01 03:12:34;;;;;;;;;;;;;;;14.74;100.00;98755.72;5025248;28;20445;-72
2021/07/01 03:15:00;;;;;;;;;;;;;;;14.56;100.00;98753.16;5027324;28;20035;-72
2021/07/01 03:17:25;;;;;;;;;;;;;;;15.03;100.00;98746.38;5008364;28;20016;-72
2021/07/01 03:19:50;;;;;;;;;;;;;;;14.90;100.00;98755.72;5008820;28;19924;-72
2021/07/01 03:22:16;;;;;;;;;;;;;;;15.00;100.00;98751.72;5008039;28;20020;-73
2021/07/01 03:24:41;;;;;;;;;;;;;;;14.96;100.00;98753.66;5008652;28;19921;-73
2021/07/01 03:27:07;;;;;;;;;;;;;;;15.07;100.00;98745.25;5008332;28;19917;-72
2021/07/01 03:29:32;;;;;;;;;;;;;;;14.95;100.00;98754.56;5026603;28;19923;-72
2021/07/01 03:31:58;;;;;;;;;;;;;;;15.23;100.00;98742.66;5007775;28;19996;-72
2021/07/01 03:34:23;;;;;;;;;;;;;;;15.66;100.00;98737.66;5008483;28;20609;-72
2021/07/01 03:36:49;;;;;;;;;;;;;;;15.41;100.00;98741.63;5025451;28;20390;-72
2021/07/01 03:39:14;;;;;;;;;;;;;;;14.76;100.00;98743.50;5008281;28;20939;-72
2021/07/01 03:41:40;;;;;;;;;;;;;;;15.18;100.00;98739.50;5007522;28;19996;-72
2021/07/01 03:44:07;;;;;;;;;;;;;;;15.32;100.00;98738.72;5025592;28;19963;-72
2021/07/01 03:46:33;;;;;;;;;;;;;;;15.23;100.00;98737.47;5007867;28;19917;-72
2021/07/01 03:48:58;;;;;;;;;;;;;;;15.02;100.00;98734.31;5008235;28;19925;-72
2021/07/01 03:51:24;;;;;;;;;;;;;;;15.22;100.00;98741.00;5025102;28;19971;-72
2021/07/01 03:53:49;;;;;;;;;;;;;;;14.97;100.00;98739.75;5005829;28;19921;-72
2021/07/01 03:56:14;;;;;;;;;;;;;;;14.90;100.00;98738.41;5006234;28;19929;-72
2021/07/01 03:58:40;;;;;;;;;;;;;;;14.32;100.00;98746.63;5006849;28;19921;-72
2021/07/01 04:01:05;;;;;;;;;;;;;;;14.39;100.00;98742.78;5024598;28;19926;-72
2021/07/01 04:03:31;;;;;;;;;;;;;;;14.95;100.00;98744.19;5021099;28;20540;-73
2021/07/01 04:05:56;;;;;;;;;;;;;;;14.80;100.00;98734.63;5022032;28;19925;-72
2021/07/01 04:08:21;;;;;;;;;;;;;;;14.96;100.00;98739.81;5003443;28;19964;-72
2021/07/01 04:10:47;;;;;;;;;;;;;;;14.72;100.00;98742.81;5002419;28;20294;-73
2021/07/01 04:13:12;;;;;;;;;;;;;;;14.57;100.00;98744.47;5002351;28;19930;-72
2021/07/01 04:15:38;;;;;;;;;;;;;;;15.12;100.00;98734.63;5021372;28;19925;-72
2021/07/01 04:18:21;;;;;;;;;;;;;;;15.38;100.00;98733.22;5004339;28;19928;-72
2021/07/01 04:20:47;;;;;;;;;;;;;;;15.00;100.00;98739.56;5023825;28;19998;-72
2021/07/01 04:23:12;;;;;;;;;;;;;;;15.86;100.00;98731.38;4989684;28;20422;-72
2021/07/01 04:25:37;;;;;;;;;;;;;;;15.72;100.00;98731.34;5024566;28;19921;-72
2021/07/01 04:28:03;;;;;;;;;;;;;;;15.32;100.00;98736.97;5025580;28;19971;-72
2021/07/01 04:30:29;;;;;;;;;;;;;;;15.26;100.00;98732.13;5007908;28;19917;-72
2021/07/01 04:32:54;;;;;;;;;;;;;;;14.93;100.00;98742.59;5007781;28;19922;-73
2021/07/01 04:35:20;;;;;;;;;;;;;;;14.66;100.00;98742.31;5025378;28;19925;-72
2021/07/01 04:37:45;;;;;;;;;;;;;;;15.05;100.00;98740.19;5007492;28;20954;-72
2021/07/01 04:40:11;;;;;;;;;;;;;;;14.83;100.00;98748.28;5007893;28;19971;-72
2021/07/01 04:42:36;;;;;;;;;;;;;;;15.05;100.00;98755.75;5007819;28;19916;-72
2021/07/01 04:45:03;;;;;;;;;;;;;;;15.48;100.00;98753.34;5005807;28;20306;-72
2021/07/01 04:47:29;;;;;;;;;;;;;;;15.04;100.00;98750.63;5006051;28;19926;-72
2021/07/01 04:49:54;;;;;;;;;;;;;;;15.57;100.00;98736.44;5024296;28;20349;-72
2021/07/01 04:52:19;;;;;;;;;;;;;;;15.22;100.00;98736.66;5023040;28;19917;-72
2021/07/01 04:54:45;;;;;;;;;;;;;;;14.98;100.00;98743.16;5004182;28;20016;-72
2021/07/01 04:57:10;;;;;;;;;;;;;;;14.69;100.00;98742.13;5004731;28;20028;-72
2021/07/01 04:59:36;;;;;;;;;;;;;;;14.79;100.00;98748.53;5021167;28;19996;-71
2021/07/01 05:02:01;;;;;;;;;;;;;;;14.70;100.00;98743.81;5021922;28;20332;-72
2021/07/01 05:04:26;;;;;;;;;;;;;;;14.95;100.00;98744.19;5003897;28;20532;-72
2021/07/01 05:06:52;;;;;;;;;;;;;;;15.19;100.00;98735.97;5004230;28;20278;-72
2021/07/01 05:09:17;;;;;;;;;;;;;;;15.03;100.00;98730.81;5021876;28;20369;-72
2021/07/01 05:11:43;;;;;;;;;;;;;;;15.66;100.00;98729.88;5004662;28;19968;-72
2021/07/01 05:14:08;;;;;;;;;;;;;;;15.37;100.00;98728.94;5004518;28;20926;-72
2021/07/01 05:16:34;;;;;;;;;;;;;;;15.15;100.00;98726.72;5003221;28;19931;-72
2021/07/01 05:19:00;;;;;;;;;;;;;;;15.42;100.00;98730.34;5020389;28;19944;-72
2021/07/01 05:21:25;;;;;;;;;;;;;;;15.89;100.00;98720.78;5020792;28;19947;-72
2021/07/01 05:23:51;;;;;;;;;;;;;;;15.37;100.00;98723.75;5002799;28;19921;-72
2021/07/01 05:26:16;;;;;;;;;;;;;;;15.02;100.00;98724.78;5002809;28;20286;-72
2021/07/01 05:28:42;;;;;;;;;;;;;;;14.85;100.00;98738.66;5021974;28;20379;-72
2021/07/01 05:31:07;;;;;;;;;;;;;;;14.43;100.00;98750.31;5004415;28;19951;-72
2021/07/01 05:33:32;;;;;;;;;;;;;;;14.42;100.00;98750.41;5021722;28;19925;-73
2021/07/01 05:35:58;;;;;;;;;;;;;;;14.69;100.00;98745.59;5023447;28;20641;-72
2021/07/01 05:38:24;;;;;;;;;;;;;;;14.79;100.00;98751.09;5006024;28;19925;-72
2021/07/01 05:40:49;;;;;;;;;;;;;;;15.50;100.00;98744.66;5023523;28;19923;-72
2021/07/01 05:43:14;;;;;;;;;;;;;;;14.76;100.00;98746.94;5024266;28;19961;-72
2021/07/01 05:45:40;;;;;;;;;;;;;;;14.90;100.00;98746.19;5022761;28;19917;-72
2021/07/01 05:48:07;;;;;;;;;;;;;;;14.96;100.00;98751.06;5006312;28;19948;-72
2021/07/01 05:50:35;;;;;;;;;;;;;;;14.83;100.00;98750.03;5023269;28;20298;-73
2021/07/01 05:53:06;;;;;;;;;;;;;;;14.37;100.00;98752.41;5005969;28;19925;-73
2021/07/01 05:55:32;;;;;;;;;;;;;;;14.37;100.00;98752.41;5023103;28;20020;-73
2021/07/01 05:57:57;;;;;;;;;;;;;;;14.26;100.00;98752.97;5022543;28;19921;-73
2021/07/01 06:00:23;;;;;;;;;;;;;;;14.35;100.00;98759.44;5022956;28;20302;-73
2021/07/01 06:02:48;;;;;;;;;;;;;;;14.46;100.00;98762.31;4990435;28;19917;-73
2021/07/01 06:05:14;;;;;;;;;;;;;;;14.13;100.00;98765.69;5006779;28;19913;-73
2021/07/01 06:07:40;;;;;;;;;;;;;;;14.62;100.00;98755.44;5006960;28;20012;-73
2021/07/01 06:10:06;;;;;;;;;;;;;;;14.38;100.00;98764.44;5006389;28;19925;-73
2021/07/01 06:12:33;;;;;;;;;;;;;;;14.44;100.00;98758.97;5006502;28;19925;-73
2021/07/01 06:14:59;;;;;;;;;;;;;;;14.35;100.00;98755.06;5023891;28;20562;-73
2021/07/01 06:17:28;;;;;;;;;;;;;;;14.52;100.00;98755.97;5004110;28;19917;-72
2021/07/01 06:19:54;;;;;;;;;;;;;;;14.26;100.00;98765.91;5005248;28;19917;-72
2021/07/01 06:22:22;;;;;;;;;;;;;;;14.34;100.00;98773.28;5004392;28;19956;-72
2021/07/01 06:24:53;;;;;;;;;;;;;;;14.29;100.00;98762.31;5004669;28;19940;-72
2021/07/01 06:27:22;;;;;;;;;;;;;;;14.08;100.00;98778.03;5004884;28;19921;-73
2021/07/01 06:29:47;;;;;;;;;;;;;;;14.09;100.00;98773.69;5020132;28;19917;-73
2021/07/01 06:32:12;;;;;;;;;;;;;;;14.37;100.00;98767.97;5004378;28;19921;-73
2021/07/01 06:34:38;;;;;;;;;;;;;;;14.23;100.00;98772.09;5002997;28;19932;-73
2021/07/01 06:37:04;;;;;;;;;;;;;;;14.23;100.00;98772.09;5001269;28;20398;-73
2021/07/01 06:39:29;;;;;;;;;;;;;;;14.01;100.00;98771.50;5005450;28;19921;-73
2021/07/01 06:41:55;;;;;;;;;;;;;;;14.32;100.00;98780.28;5004500;28;19924;-73
2021/07/01 06:44:20;;;;;;;;;;;;;;;14.28;100.00;98783.94;5005980;28;19917;-73
2021/07/01 06:46:46;;;;;;;;;;;;;;;14.28;100.00;98779.63;5008031;28;19968;-73
2021/07/01 06:49:11;;;;;;;;;;;;;;;14.08;100.00;98778.03;5009072;28;19913;-72
2021/07/01 06:51:39;;;;;;;;;;;;;;;14.58;100.00;98779.84;5009096;28;19920;-72
2021/07/01 06:54:05;;;;;;;;;;;;;;;14.60;100.00;98778.00;5008766;28;19963;-72
2021/07/01 06:56:38;;;;;;;;;;;;;;;14.55;100.00;98779.13;5009853;28;19917;-73
2021/07/01 06:59:04;;;;;;;;;;;;;;;14.21;100.00;98786.88;5026013;28;19920;-72
2021/07/01 07:01:29;;;;;;;;;;;;;;;14.02;100.00;98793.88;5008010;28;20398;-73
2021/07/01 07:03:55;;;;;;;;;;;;;;;14.36;100.00;98787.81;5026753;28;19925;-72
2021/07/01 07:06:20;;;;;;;;;;;;;;;14.25;100.00;98797.06;5026607;28;19921;-72
2021/07/01 07:08:45;;;;;;;;;;;;;;;14.07;100.00;98789.31;5009633;28;20045;-72
2021/07/01 07:11:11;;;;;;;;;;;;;;;14.11;100.00;98798.59;5007800;28;20179;-72
2021/07/01 07:13:36;;;;;;;;;;;;;;;14.42;100.00;98784.09;5026487;28;20963;-73
2021/07/01 07:16:02;;;;;;;;;;;;;;;14.29;100.00;98788.22;5008167;28;19917;-70
2021/07/01 07:18:35;;;;;;;;;;;;;;;14.11;100.00;98788.22;5026074;28;19975;-72
2021/07/01 07:21:06;;;;;;;;;;;;;;;14.29;100.00;98790.81;5008094;28;19917;-72
2021/07/01 07:23:32;;;;;;;;;;;;;;;14.42;100.00;98797.88;5009244;28;19917;-72
2021/07/01 07:25:59;;;;;;;;;;;;;;;14.30;100.00;98797.66;5007336;28;20367;-72
2021/07/01 07:28:25;;;;;;;;;;;;;;;14.63;100.00;98793.38;5009329;28;19924;-73
2021/07/01 07:30:52;;;;;;;;;;;;;;;14.66;100.00;98787.19;5008279;28;19968;-72
2021/07/01 07:33:17;;;;;;;;;;;;;;;14.38;100.00;98792.94;5008701;28;19921;-73
2021/07/01 07:35:42;;;;;;;;;;;;;;;14.58;100.00;98802.31;5008199;28;19966;-72
2021/07/01 07:38:08;;;;;;;;;;;;;;;14.55;100.00;98800.72;4992801;28;20461;-73
2021/07/01 07:40:33;;;;;;;;;;;;;;;14.69;100.00;98806.94;5008681;28;20015;-72
2021/07/01 07:43:03;;;;;;;;;;;;;;;14.75;100.00;98801.44;5009796;28;19921;-69
2021/07/01 07:45:28;;;;;;;;;;;;;;;14.55;100.00;98798.13;5009481;28;19987;-72
2021/07/01 07:47:54;;;;;;;;;;;;;;;14.80;100.00;98792.50;5008722;28;19929;-73
2021/07/01 07:50:19;;;;;;;;;;;;;;;15.05;100.00;98793.78;4991391;28;19952;-73
2021/07/01 07:52:49;;;;;;;;;;;;;;;14.52;100.00;98795.66;5025885;28;20347;-72
2021/07/01 07:55:15;;;;;;;;;;;;;;;14.57;100.00;98791.13;5007378;28;19998;-72
2021/07/01 07:57:42;;;;;;;;;;;;;;;14.46;100.00;98798.59;5024397;28;20556;-72
2021/07/01 08:00:08;;;;;;;;;;;;;;;14.60;100.00;98798.72;5006825;28;20086;-72
2021/07/01 08:02:46;;;;;;;;;;;;;;;15.04;100.00;98795.53;5026047;28;19917;-72
2021/07/01 08:05:13;;;;;;;;;;;;;;;15.20;100.00;98789.53;5024502;28;19921;-72
2021/07/01 08:07:38;;;;;;;;;;;;;;;15.45;100.00;98774.28;5007911;28;19917;-72
2021/07/01 08:10:07;;;;;;;;;;;;;;;15.52;100.00;98769.59;5025603;28;20289;-72
2021/07/01 08:12:33;;;;;;;;;;;;;;;15.30;100.00;98780.31;5025149;28;19925;-72
2021/07/01 08:14:58;;;;;;;;;;;;;;;15.28;100.00;98787.38;4991959;28;19925;-71
2021/07/01 08:17:24;;;;;;;;;;;;;;;14.97;100.00;98793.38;5024897;28;19913;-71
2021/07/01 08:19:49;;;;;;;;;;;;;;;14.90;100.00;98798.03;5007643;28;19917;-71
2021/07/01 08:22:15;;;;;;;;;;;;;;;15.17;100.00;98795.72;5006559;28;19936;-72
2021/07/01 08:24:40;;;;;;;;;;;;;;;14.88;100.00;98799.88;5024926;28;20674;-72
2021/07/01 08:27:05;;;;;;;;;;;;;;;15.23;100.00;98797.97;5008552;28;19925;-73
2021/07/01 08:29:31;;;;;;;;;;;;;;;15.20;100.00;98792.97;5002082;28;19917;-73
2021/07/01 08:31:57;;;;;;;;;;;;;;;14.71;100.00;98798.19;5007822;28;19920;-73
2021/07/01 08:34:23;;;;;;;;;;;;;;;14.99;100.00;98807.94;5006521;28;19925;-73
2021/07/01 08:36:48;;;;;;;;;;;;;;;15.34;100.00;98802.59;5025186;28;19917;-73
2021/07/01 08:39:14;;;;;;;;;;;;;;;15.04;100.00;98800.72;5023709;28;19921;-73
2021/07/01 08:41:41;;;;;;;;;;;;;;;15.39;100.00;98797.16;5024654;28;20267;-73
2021/07/01 08:44:08;;;;;;;;;;;;;;;15.69;100.00;98794.59;5024977;28;20352;-73
2021/07/01 08:46:39;;;;;;;;;;;;;;;16.16;100.00;98785.88;5024877;28;19920;-73
2021/07/01 08:49:07;;;;;;;;;;;;;;;15.75;100.00;98786.50;5007133;28;19921;-73
2021/07/01 08:51:36;;;;;;;;;;;;;;;15.39;100.00;98790.19;5006339;28;19956;-73
2021/07/01 08:54:08;;;;;;;;;;;;;;;15.66;100.00;98789.59;5007205;28;19921;-73
2021/07/01 08:56:35;;;;;;;;;;;;;;;16.00;100.00;98791.13;5022749;28;19928;-73
2021/07/01 08:59:09;;;;;;;;;;;;;;;15.48;100.00;98792.28;5023705;28;20034;-73
2021/07/01 09:01:38;;;;;;;;;;;;;;;15.53;100.00;98786.84;5005543;28;19917;-73
2021/07/01 09:04:04;;;;;;;;;;;;;;;15.27;100.00;98790.88;5024643;28;20370;-73
2021/07/01 09:06:33;;;;;;;;;;;;;;;15.33;100.00;98795.75;5005466;28;19917;-73
2021/07/01 09:08:59;;;;;;;;;;;;;;;15.40;100.00;98791.88;5023945;28;19917;-73
2021/07/01 09:11:24;;;;;;;;;;;;;;;15.72;100.00;98797.06;5006088;28;20325;-73
2021/07/01 09:13:49;;;;;;;;;;;;;;;15.76;100.00;98785.59;5006089;28;20382;-73
2021/07/01 09:16:15;;;;;;;;;;;;;;;15.36;100.00;98784.34;5024117;28;20378;-73
2021/07/01 09:18:41;;;;;;;;;;;;;;;15.65;100.00;98790.53;5024539;28;19921;-73
2021/07/01 09:21:06;;;;;;;;;;;;;;;15.75;100.00;98794.28;5022415;28;19944;-72
2021/07/01 09:23:32;;;;;;;;;;;;;;;15.82;100.00;98802.56;5006124;28;19951;-71
2021/07/01 09:26:00;;;;;;;;;;;;;;;15.48;100.00;98792.28;5005941;28;19963;-72
2021/07/01 09:28:25;;;;;;;;;;;;;;;15.18;100.00;98801.75;4989565;28;19987;-73
2021/07/01 09:30:54;;;;;;;;;;;;;;;15.82;100.00;98798.22;4989835;28;19917;-71
2021/07/01 09:33:19;;;;;;;;;;;;;;;15.88;100.00;98797.88;4989617;28;19925;-72
2021/07/01 09:35:45;;;;;;;;;;;;;;;15.75;100.00;98796.88;5022156;28;20223;-71
2021/07/01 09:38:11;;;;;;;;;;;;;;;15.98;100.00;98797.34;5024627;28;19914;-72
2021/07/01 09:40:38;;;;;;;;;;;;;;;15.58;100.00;98803.00;5004997;28;20216;-72
2021/07/01 09:43:05;;;;;;;;;;;;;;;15.69;100.00;98797.19;5006470;28;20011;-72
2021/07/01 09:45:31;;;;;;;;;;;;;;;15.77;100.00;98799.41;5003915;28;20011;-72
2021/07/01 09:48:09;;;;;;;;;;;;;;;14.96;100.00;98815.88;5024531;28;19928;-72
2021/07/01 09:50:35;;;;;;;;;;;;;;;15.34;100.00;98812.97;5023470;28;19913;-72
2021/07/01 09:53:02;;;;;;;;;;;;;;;14.79;100.00;98823.69;5023921;28;19921;-72
2021/07/01 09:55:28;;;;;;;;;;;;;;;15.27;100.00;98816.81;5006107;28;19917;-72
2021/07/01 09:58:04;;;;;;;;;;;;;;;15.58;100.00;98815.16;5006836;28;19971;-72
2021/07/01 10:00:31;;;;;;;;;;;;;;;15.78;100.00;98817.50;5006140;28;20027;-72
2021/07/01 10:03:06;;;;;;;;;;;;;;;15.98;100.00;98818.94;5023458;28;20016;-72
2021/07/01 10:05:31;;;;;;;;;;;;;;;15.21;100.00;98830.09;5006525;28;19913;-72
2021/07/01 10:07:57;;;;;;;;;;;;;;;15.40;100.00;98828.22;5004301;28;19949;-72
2021/07/01 10:10:24;;;;;;;;;;;;;;;16.49;100.00;98819.47;5006809;28;20367;-72
2021/07/01 10:12:51;;;;;;;;;;;;;;;15.30;100.00;98816.63;5022000;28;20031;-72
2021/07/01 10:15:25;;;;;;;;;;;;;;;15.63;100.00;98819.16;5005679;28;19964;-72
2021/07/01 10:18:24;;;;;;;;;;;;;;;15.61;100.00;98822.75;5022693;28;19925;-72
2021/07/01 10:20:50;;;;;;;;;;;;;;;15.72;100.00;98820.44;4971883;28;20510;-72
2021/07/01 10:23:29;;;;;;;;;;;;;;;15.98;100.00;98823.31;4993839;28;20560;-71
2021/07/01 10:25:55;;;;;;;;;;;;;;;15.85;100.00;98823.16;5026312;28;19960;-72
2021/07/01 10:28:21;;;;;;;;;;;;;;;15.66;100.00;98824.16;4994000;28;19964;-72
2021/07/01 10:31:00;;;;;;;;;;;;;;;16.05;100.00;98824.63;5009282;28;19913;-72
2021/07/01 10:33:30;;;;;;;;;;;;;;;15.84;100.00;98822.34;5009939;28;19921;-72
2021/07/01 10:36:01;;;;;;;;;;;;;;;15.38;100.00;98829.22;5025194;28;19925;-72
2021/07/01 10:38:26;;;;;;;;;;;;;;;16.18;100.00;98824.78;5009910;28;19952;-72
2021/07/01 10:40:56;;;;;;;;;;;;;;;15.94;100.00;98819.22;5009249;28;19916;-72
2021/07/01 10:43:37;;;;;;;;;;;;;;;15.95;100.00;98826.09;5008598;28;19921;-72
2021/07/01 10:46:02;;;;;;;;;;;;;;;16.19;100.00;98816.88;5008732;28;19920;-72
2021/07/01 10:48:28;;;;;;;;;;;;;;;16.16;100.00;98822.25;5025754;28;19917;-72
2021/07/01 10:50:54;;;;;;;;;;;;;;;15.92;100.00;98815.88;5009756;28;19959;-72
2021/07/01 10:53:37;;;;;;;;;;;;;;;16.02;100.00;98820.44;5008595;28;20283;-72
2021/07/01 10:56:18;;;;;;;;;;;;;;;16.38;100.00;98815.81;5010091;28;19925;-71
2021/07/01 10:58:44;;;;;;;;;;;;;;;15.68;100.00;98819.72;5026412;28;19921;-72
2021/07/01 11:01:09;;;;;;;;;;;;;;;16.07;100.00;98820.19;5024919;28;20008;-72
2021/07/01 11:03:35;;;;;;;;;;;;;;;15.56;100.00;98823.00;5024671;28;20012;-72
2021/07/01 11:06:01;;;;;;;;;;;;;;;15.30;100.00;98832.22;5009471;28;20401;-72
2021/07/01 11:08:34;;;;;;;;;;;;;;;15.37;100.00;98837.91;5025534;28;19968;-72
2021/07/01 11:11:00;;;;;;;;;;;;;;;15.27;100.00;98840.16;5026059;28;19917;-72
2021/07/01 11:13:26;;;;;;;;;;;;;;;15.10;100.00;98842.81;5009008;28;20022;-72
2021/07/01 11:16:13;;;;;;;;;;;;;;;14.94;100.00;98845.38;5007930;28;20536;-72
2021/07/01 11:18:45;;;;;;;;;;;;;;;14.48;100.00;98855.47;4979810;28;19921;-72
2021/07/01 11:21:14;;;;;;;;;;;;;;;14.91;100.00;98848.97;5008260;28;19935;-72
2021/07/01 11:23:40;;;;;;;;;;;;;;;14.83;100.00;98854.56;5027003;28;20016;-72
2021/07/01 11:26:26;;;;;;;;;;;;;;;14.81;100.00;98858.16;5025087;28;19928;-72
2021/07/01 11:28:52;;;;;;;;;;;;;;;15.25;100.00;98854.97;5026339;28;21022;-75
2021/07/01 11:31:17;;;;;;;;;;;;;;;15.21;100.00;98858.66;5009373;28;19921;-72
2021/07/01 11:33:53;;;;;;;;;;;;;;;15.94;100.00;98852.97;5006976;28;20418;-72
2021/07/01 11:36:19;;;;;;;;;;;;;;;16.36;100.00;98854.06;5025150;28;19925;-72
2021/07/01 11:38:45;;;;;;;;;;;;;;;16.07;100.00;98848.75;5026739;28;19928;-72
2021/07/01 11:41:11;;;;;;;;;;;;;;;15.94;100.00;98843.41;5008575;28;19917;-72
2021/07/01 11:43:37;;;;;;;;;;;;;;;15.83;100.00;98849.25;5024219;28;19918;-72
2021/07/01 11:46:03;;;;;;;;;;;;;;;16.49;100.00;98853.25;5007985;28;19913;-73
2021/07/01 11:48:31;;;;;;;;;;;;;;;16.13;100.00;98855.38;5025287;28;21014;-73
2021/07/01 11:50:58;;;;;;;;;;;;;;;16.09;100.00;98862.50;5008145;28;19971;-73
2021/07/01 11:53:24;;;;;;;;;;;;;;;16.05;100.00;98861.00;5025003;28;19974;-73
2021/07/01 11:55:51;;;;;;;;;;;;;;;15.98;100.00;98864.88;5025567;28;19921;-73
2021/07/01 11:58:17;;;;;;;;;;;;;;;15.57;100.00;98867.97;5008047;28;20003;-73
2021/07/01 12:00:42;;;;;;;;;;;;;;;16.39;100.00;98869.47;5024923;28;20008;-73
2021/07/01 12:03:08;;;;;;;;;;;;;;;15.63;100.00;98872.84;5006956;28;20019;-73
2021/07/01 12:05:33;;;;;;;;;;;;;;;16.21;100.00;98871.34;5025290;28;19932;-72
2021/07/01 12:07:59;;;;;;;;;;;;;;;16.58;100.00;98866.63;5006876;28;20007;-72
2021/07/01 12:10:25;;;;;;;;;;;;;;;15.80;100.00;98867.56;5006956;28;19929;-73
2021/07/01 12:12:51;;;;;;;;;;;;;;;15.91;100.00;98872.16;5022420;28;19987;-73
2021/07/01 12:15:17;;;;;;;;;;;;;;;15.97;100.00;98873.59;5023377;28;20404;-73
2021/07/01 12:17:49;;;;;;;;;;;;;;;15.91;100.00;98864.38;5006600;28;19917;-73
2021/07/01 12:20:34;;;;;;;;;;;;;;;16.12;100.00;98871.88;5024931;28;20008;-73
2021/07/01 12:23:00;;;;;;;;;;;;;;;16.27;100.00;98877.03;5012204;28;19913;-73
2021/07/01 12:25:25;;;;;;;;;;;;;;;15.97;100.00;98873.59;5006584;28;19921;-73
2021/07/01 12:28:09;;;;;;;;;;;;;;;16.36;100.00;98877.44;5024239;28;20378;-73
2021/07/01 12:30:56;;;;;;;;;;;;;;;15.30;100.00;98884.09;5023736;28;19927;-73
2021/07/01 12:33:40;;;;;;;;;;;;;;;15.48;100.00;98888.31;5024419;28;20373;-73